West Ashford, Connecticut
Current Conditions -  °F | °C
As of 11:52 AM on Thursday 18 Dec 2014 (Local Time) from KIJD Reporting Station
Overcast Overcast  
Wind Chill: 33°   Ceiling: 3300
Heat Index: 40°   Visibility: 10mi
Dew Point: 27°   Wind: 13mph
Humidity: 60%   Direction: 330°NNW
Pressure: 29.86"   Gusts: 20mph
Location:  41.7742°N, 72.196°W
Report Text: KIJD 181652Z AUTO 33011G17KT 300V010 10SM OVC033 04/M03 A2986 RMK AO2 PK WND 30026/1632 SLP111 T00441028
Loading
Personal Weather Stations






























Interactive Weather Map New forecast layout! Learn more

10-Day Weather Forecast

Advertisements
Track Severe Weather on mobile